Time;durP1;ratioP1;P1;durP2;ratioP2;P2;SDS_P1;SDS_P2;PMS_P1;PMS_P2;Temp;Humidity;BMP_temperature;BMP_pressure;BME280_temperature;BME280_humidity;BME280_pressure;Samples;Min_cycle;Max_cycle;Signal;HPM_P1;HPM_P2
2022/12/04 00:03:30;;;;;;;32.45;21.27;;;;;;;7.09;74.50;99592.78;10291553;28;96664;-85
2022/12/04 00:08:34;;;;;;;29.08;20.38;;;;;;;6.98;75.00;99587.06;10291517;28;96615;-85
2022/12/04 00:13:41;;;;;;;29.75;20.00;;;;;;;7.07;74.87;99589.38;10302775;28;98199;-85
2022/12/04 00:18:46;;;;;;;29.83;20.15;;;;;;;7.10;74.39;99586.63;10331790;28;96694;-85
2022/12/04 00:23:50;;;;;;;26.15;18.65;;;;;;;7.20;74.02;99581.94;10332114;28;96680;-85
2022/12/04 00:29:01;;;;;;;29.70;18.88;;;;;;;7.09;74.34;99584.94;10325672;28;96814;-84
2022/12/04 00:34:05;;;;;;;32.38;20.17;;;;;;;7.18;73.84;99570.66;10291051;28;96736;-84
2022/12/04 00:39:10;;;;;;;27.63;18.17;;;;;;;7.28;74.10;99583.34;10290381;28;97418;-85
2022/12/04 00:44:19;;;;;;;25.20;17.50;;;;;;;7.31;73.35;99567.53;10291171;28;96591;-85
2022/12/04 00:49:23;;;;;;;27.35;18.20;;;;;;;7.33;73.54;99575.31;10291590;28;96699;-85
2022/12/04 00:54:29;;;;;;;27.63;17.55;;;;;;;7.33;73.97;99555.25;10290452;28;97043;-84
2022/12/04 00:59:37;;;;;;;27.08;17.83;;;;;;;7.28;74.35;99551.97;10289824;28;97022;-85
2022/12/04 01:04:41;;;;;;;26.52;17.77;;;;;;;7.33;73.98;99551.78;10294125;28;96664;-85
2022/12/04 01:09:47;;;;;;;26.42;18.20;;;;;;;7.29;73.85;99552.78;10296708;28;96615;-85
2022/12/04 01:14:56;;;;;;;25.52;17.77;;;;;;;7.28;74.36;99551.09;10327357;28;96586;-85
2022/12/04 01:20:00;;;;;;;25.45;17.73;;;;;;;7.32;73.76;99550.91;10330714;28;96884;-85
2022/12/04 01:25:06;;;;;;;27.02;17.27;;;;;;;7.38;74.07;99542.84;10296296;28;96840;-85
2022/12/04 01:30:14;;;;;;;24.25;17.15;;;;;;;7.29;74.07;99540.56;10296146;28;96721;-85
2022/12/04 01:35:18;;;;;;;23.98;16.80;;;;;;;7.37;74.02;99530.66;10295913;28;96558;-85
2022/12/04 01:40:23;;;;;;;24.88;17.10;;;;;;;7.27;74.38;99546.78;10296837;28;96696;-84
2022/12/04 01:45:43;;;;;;;25.25;17.30;;;;;;;7.30;73.68;99539.69;10295916;28;96633;-85
2022/12/04 01:50:51;;;;;;;25.27;17.15;;;;;;;7.35;73.54;99542.97;10295341;28;96612;-85
2022/12/04 01:55:57;;;;;;;25.70;17.40;;;;;;;7.31;73.73;99532.66;10294941;28;97307;-85
2022/12/04 02:01:07;;;;;;;27.17;18.33;;;;;;;7.29;73.50;99527.47;10294421;28;96821;-85
2022/12/04 02:06:12;;;;;;;26.00;16.48;;;;;;;7.39;73.04;99534.06;10294936;28;96576;-85
2022/12/04 02:11:31;;;;;;;24.58;17.63;;;;;;;7.38;73.99;99537.59;10296103;28;96575;-85
2022/12/04 02:16:46;;;;;;;24.30;16.98;;;;;;;7.27;73.62;99536.31;10333984;28;96747;-84
2022/12/04 02:21:55;;;;;;;24.23;17.75;;;;;;;7.38;73.72;99534.13;10335757;28;96557;-85
2022/12/04 02:27:03;;;;;;;24.35;17.38;;;;;;;7.31;74.02;99537.88;10335499;28;96488;-85
2022/12/04 02:32:20;;;;;;;30.70;19.58;;;;;;;7.39;73.11;99535.84;10334917;28;96598;-85
2022/12/04 02:37:30;;;;;;;26.48;17.23;;;;;;;7.39;73.76;99543.69;10334839;28;96656;-85
2022/12/04 02:42:40;;;;;;;25.80;17.38;;;;;;;7.36;73.28;99543.78;10335360;28;96796;-85
2022/12/04 02:47:51;;;;;;;23.67;17.73;;;;;;;7.38;73.66;99528.91;10333036;28;97111;-85
2022/12/04 02:53:02;;;;;;;27.65;18.73;;;;;;;7.38;73.46;99544.59;10334391;28;96709;-85
2022/12/04 02:58:13;;;;;;;26.70;17.83;;;;;;;7.35;73.73;99536.88;10334677;28;97662;-85
2022/12/04 03:03:23;;;;;;;24.52;16.58;;;;;;;7.36;72.74;99538.56;10332972;28;96817;-84
2022/12/04 03:08:31;;;;;;;24.73;17.02;;;;;;;7.35;73.12;99536.88;10334054;28;96845;-85
2022/12/04 03:13:41;;;;;;;28.77;18.13;;;;;;;7.43;72.98;99540.03;10333359;28;96660;-85
2022/12/04 03:18:51;;;;;;;27.35;18.10;;;;;;;7.33;73.14;99544.78;10328873;28;97007;-85
2022/12/04 03:24:04;;;;;;;25.13;16.63;;;;;;;7.38;73.13;99524.53;10293412;28;96637;-85
2022/12/04 03:29:14;;;;;;;25.67;17.40;;;;;;;7.38;73.66;99532.38;10291884;28;96899;-85
2022/12/04 03:34:28;;;;;;;27.88;16.80;;;;;;;7.31;73.84;99532.66;10292342;28;96656;-85
2022/12/04 03:39:38;;;;;;;23.92;16.00;;;;;;;7.33;73.86;99536.06;10291570;28;97201;-85
2022/12/04 03:44:47;;;;;;;24.80;15.77;;;;;;;7.37;73.14;99535.88;10291823;28;96623;-84
2022/12/04 03:49:59;;;;;;;22.83;15.80;;;;;;;7.42;73.89;99528.75;10291706;28;96951;-85
2022/12/04 03:55:09;;;;;;;23.35;16.83;;;;;;;7.43;73.54;99519.09;10292257;28;96671;-85
2022/12/04 04:00:19;;;;;;;21.60;15.02;;;;;;;7.46;73.41;99508.53;10291191;28;97480;-85
2022/12/04 04:05:30;;;;;;;21.02;14.88;;;;;;;7.48;73.25;99512.78;10291774;28;96643;-85
2022/12/04 04:10:35;;;;;;;22.73;15.20;;;;;;;7.44;73.54;99505.13;10292542;28;96866;-85
2022/12/04 04:26:35;;;;;;;23.38;15.55;;;;;;;7.36;73.89;99500.16;10293511;28;96711;-85
2022/12/04 04:31:48;;;;;;;20.92;14.50;;;;;;;7.40;73.09;99482.59;10331084;28;96798;-85
2022/12/04 04:37:05;;;;;;;22.73;14.30;;;;;;;7.36;73.33;99494.06;10332734;28;96625;-84
2022/12/04 04:42:18;;;;;;;22.75;14.57;;;;;;;7.32;73.54;99495.97;10338948;28;96600;-85
2022/12/04 04:47:28;;;;;;;18.77;13.60;;;;;;;7.28;73.73;99493.53;10337956;28;97669;-84
2022/12/04 04:52:38;;;;;;;20.85;14.18;;;;;;;7.33;74.33;99495.06;10338737;28;96919;-84
2022/12/04 04:57:42;;;;;;;21.02;14.70;;;;;;;7.35;73.84;99489.75;10338029;28;96793;-85
2022/12/04 05:02:47;;;;;;;20.33;14.32;;;;;;;7.38;73.88;99505.34;10337002;28;96708;-85
2022/12/04 05:07:57;;;;;;;23.35;14.73;;;;;;;7.36;73.94;99510.63;10338972;28;96964;-85
2022/12/04 05:13:02;;;;;;;20.52;13.63;;;;;;;7.32;74.39;99513.44;10337691;28;96652;-85
2022/12/04 05:18:07;;;;;;;21.75;14.38;;;;;;;7.32;73.61;99503.81;10328946;28;98043;-85
2022/12/04 05:23:14;;;;;;;19.63;13.55;;;;;;;7.45;73.11;99514.66;10295582;28;96520;-84
2022/12/04 05:28:19;;;;;;;19.75;12.52;;;;;;;7.45;73.39;99506.81;10296384;28;96579;-85
2022/12/04 05:33:24;;;;;;;19.05;13.02;;;;;;;7.44;73.77;99502.50;10295901;28;96827;-85
2022/12/04 05:38:30;;;;;;;22.47;14.40;;;;;;;7.39;73.73;99517.53;10296216;28;96724;-85
2022/12/04 05:43:35;;;;;;;17.75;12.77;;;;;;;7.29;73.26;99522.25;10295653;28;96612;-85
2022/12/04 05:48:40;;;;;;;;;;;;;;;7.25;73.92;99522.44;10295701;28;96640;-85
2022/12/04 05:53:47;;;;;;;20.02;13.35;;;;;;;7.33;74.18;99525.59;10296248;28;96744;-84
2022/12/04 05:58:55;;;;;;;20.23;13.48;;;;;;;7.37;73.97;99529.81;10295250;28;96846;-85
2022/12/04 06:03:59;;;;;;;20.90;13.70;;;;;;;7.31;74.99;99536.13;10294941;28;96669;-85
2022/12/04 06:09:10;;;;;;;18.67;12.73;;;;;;;7.25;75.54;99541.59;10295755;28;96753;-85
2022/12/04 06:14:16;;;;;;;21.85;14.27;;;;;;;7.26;74.87;99534.59;10293243;28;96844;-85
2022/12/04 06:19:21;;;;;;;20.08;12.63;;;;;;;7.25;75.02;99535.53;10294601;28;96894;-85
2022/12/04 06:24:27;;;;;;;18.85;13.25;;;;;;;7.19;75.32;99543.59;10294786;28;96704;-85
2022/12/04 06:29:35;;;;;;;19.50;13.10;;;;;;;7.17;75.87;99545.41;10294281;28;96807;-85
2022/12/04 06:34:42;;;;;;;19.33;12.48;;;;;;;7.14;76.10;99554.22;10294502;28;96544;-85
2022/12/04 06:39:48;;;;;;;17.83;12.13;;;;;;;7.12;76.54;99548.19;10293563;28;96592;-85
2022/12/04 06:44:55;;;;;;;19.40;13.43;;;;;;;7.08;76.21;99545.75;10294449;28;97286;-85
2022/12/04 06:50:00;;;;;;;18.48;12.80;;;;;;;7.09;75.77;99560.53;10294277;28;96641;-85
2022/12/04 06:55:11;;;;;;;19.33;12.80;;;;;;;7.12;76.10;99560.41;10293554;28;96581;-85
2022/12/04 07:00:16;;;;;;;17.15;12.50;;;;;;;7.15;75.29;99578.59;10293120;28;96593;-85
2022/12/04 07:05:21;;;;;;;16.13;11.70;;;;;;;7.17;75.50;99571.56;10292374;28;96960;-85
2022/12/04 07:10:30;;;;;;;19.15;12.90;;;;;;;7.21;75.93;99570.53;10312239;28;97412;-85
2022/12/04 07:15:37;;;;;;;18.75;12.25;;;;;;;7.20;76.02;99576.69;10334619;28;96654;-85
2022/12/04 07:20:48;;;;;;;17.65;11.63;;;;;;;7.22;75.99;99585.31;10296263;28;96722;-84
2022/12/04 07:25:56;;;;;;;18.17;11.90;;;;;;;7.29;75.66;99592.03;10292282;28;96880;-85
2022/12/04 07:31:05;;;;;;;16.67;11.02;;;;;;;7.27;75.36;99589.47;10292394;28;96835;-85
2022/12/04 07:36:15;;;;;;;16.48;11.68;;;;;;;7.30;75.78;99591.16;10293063;28;96579;-85
2022/12/04 07:41:21;;;;;;;16.95;11.90;;;;;;;7.35;74.98;99600.53;10292857;28;96649;-85
2022/12/04 07:46:26;;;;;;;;;;;;;;;7.27;75.24;99601.75;10293395;28;96785;-84
2022/12/04 07:51:35;;;;;;;19.20;12.30;;;;;;;7.31;75.09;99612.03;10292658;28;96744;-85
2022/12/04 07:56:47;;;;;;;17.65;11.88;;;;;;;7.35;75.35;99615.38;10290662;28;96659;-84
2022/12/04 08:01:50;;;;;;;16.15;10.98;;;;;;;7.38;75.06;99612.66;10291315;28;96883;-84
2022/12/04 08:06:56;;;;;;;16.80;10.88;;;;;;;7.40;74.89;99622.16;10291343;28;96596;-85
2022/12/04 08:12:02;;;;;;;18.48;11.00;;;;;;;7.42;74.18;99620.34;10292623;28;96758;-85
2022/12/04 08:17:07;;;;;;;14.57;10.25;;;;;;;7.51;74.34;99624.38;10327165;28;96720;-85
2022/12/04 08:22:11;;;;;;;14.18;10.40;;;;;;;7.48;74.37;99627.09;10339545;28;96650;-85
2022/12/04 08:27:18;;;;;;;14.93;9.98;;;;;;;7.53;73.82;99633.88;10314149;28;96623;-85
2022/12/04 08:32:22;;;;;;;15.93;10.50;;;;;;;7.61;74.03;99650.16;10298580;28;96893;-85
2022/12/04 08:37:31;;;;;;;13.48;10.20;;;;;;;7.63;74.08;99647.50;10297890;28;96897;-84
2022/12/04 08:42:41;;;;;;;14.25;9.90;;;;;;;7.72;73.36;99649.72;10297978;28;96690;-85
2022/12/04 08:47:49;;;;;;;15.32;10.10;;;;;;;7.75;73.43;99658.31;10296225;28;96658;-84
2022/12/04 08:52:57;;;;;;;14.32;10.07;;;;;;;7.86;72.98;99663.16;10297848;28;96724;-85
2022/12/04 08:58:05;;;;;;;16.10;10.98;;;;;;;7.80;73.13;99666.03;10297176;28;97076;-85
2022/12/04 09:03:12;;;;;;;13.98;9.65;;;;;;;7.80;72.75;99674.72;10297494;28;96778;-85
2022/12/04 09:08:18;;;;;;;15.95;10.60;;;;;;;7.94;72.45;99667.19;10306358;28;96633;-84
2022/12/04 09:13:25;;;;;;;;;;;;;;;7.79;72.35;99688.75;10336846;28;96808;-85
2022/12/04 09:18:29;;;;;;;13.90;9.88;;;;;;;7.82;72.50;99690.41;10310900;28;96993;-85
2022/12/04 09:23:35;;;;;;;14.93;10.43;;;;;;;7.88;72.43;99692.78;10296580;28;96840;-85
2022/12/04 09:28:46;;;;;;;15.55;10.35;;;;;;;7.95;72.53;99702.97;10296470;28;96809;-85
2022/12/04 09:33:50;;;;;;;13.38;9.68;;;;;;;7.95;72.69;99696.88;10296553;28;96634;-85
2022/12/04 09:38:58;;;;;;;15.40;10.02;;;;;;;7.98;72.38;99691.50;10294702;28;97110;-85
2022/12/04 09:44:11;;;;;;;14.90;10.27;;;;;;;8.05;72.02;99703.47;10296016;28;96644;-85
2022/12/04 09:49:24;;;;;;;14.27;9.30;;;;;;;8.16;71.55;99708.31;10295879;28;96624;-85
2022/12/04 09:54:35;;;;;;;12.60;8.70;;;;;;;8.42;70.97;99713.38;10295451;28;96622;-85
2022/12/04 09:59:42;;;;;;;15.73;10.32;;;;;;;8.39;71.62;99716.13;10294546;28;96911;-85
2022/12/04 10:04:47;;;;;;;13.80;9.70;;;;;;;8.37;71.12;99718.81;10294715;28;96641;-84
2022/12/04 10:10:01;;;;;;;15.73;8.95;;;;;;;8.42;70.85;99734.34;10317618;28;96609;-85
2022/12/04 10:15:20;;;;;;;14.17;9.63;;;;;;;8.57;70.58;99721.50;10337069;28;97514;-85
2022/12/04 10:20:46;;;;;;;12.48;9.13;;;;;;;8.81;70.46;99738.88;10335420;28;96752;-85
2022/12/04 10:25:54;;;;;;;12.57;9.40;;;;;;;9.08;69.19;99737.75;10334477;28;96631;-84
2022/12/04 10:31:04;;;;;;;14.48;10.38;;;;;;;9.08;69.42;99739.50;10334090;28;96728;-85
2022/12/04 10:36:14;;;;;;;14.00;8.98;;;;;;;9.29;68.46;99756.16;10334213;28;96640;-85
2022/12/04 10:41:25;;;;;;;12.95;9.35;;;;;;;9.17;68.45;99743.53;10333817;28;97694;-85
2022/12/04 10:46:40;;;;;;;18.77;12.65;;;;;;;9.00;69.23;99750.31;10334878;28;96717;-85
2022/12/04 10:51:54;;;;;;;13.90;9.38;;;;;;;9.03;69.01;99744.94;10334721;28;96655;-85
2022/12/04 10:57:00;;;;;;;14.00;10.48;;;;;;;9.13;68.68;99745.41;10334203;28;96729;-85
2022/12/04 11:02:20;;;;;;;12.50;9.55;;;;;;;9.15;68.11;99733.91;10333052;28;96961;-85
2022/12/04 11:07:29;;;;;;;13.70;9.43;;;;;;;9.23;68.11;99738.84;10334789;28;96724;-85
2022/12/04 11:12:37;;;;;;;13.35;8.68;;;;;;;9.34;67.86;99728.78;10334037;28;96545;-85
2022/12/04 11:17:49;;;;;;;12.32;8.57;;;;;;;9.30;67.65;99721.09;10333247;28;96560;-85
2022/12/04 11:22:57;;;;;;;17.67;12.23;;;;;;;9.43;67.94;99717.91;10332512;28;96975;-85
2022/12/04 11:28:03;;;;;;;14.00;9.88;;;;;;;9.36;67.69;99711.22;10333237;28;96611;-85
2022/12/04 11:33:19;;;;;;;13.70;9.38;;;;;;;9.41;67.51;99717.13;10316652;28;96722;-85
2022/12/04 11:38:29;;;;;;;11.95;8.88;;;;;;;9.53;67.50;99706.06;10292006;28;96653;-84
2022/12/04 11:43:48;;;;;;;12.00;8.90;;;;;;;9.70;67.17;99702.69;10292171;28;96567;-85
2022/12/04 11:49:23;;;;;;;19.20;12.70;;;;;;;9.69;66.48;99701.00;10292034;28;96723;-85
2022/12/04 11:54:41;;;;;;;13.30;9.20;;;;;;;9.71;66.20;99693.91;10291624;28;97252;-85
2022/12/04 12:00:10;;;;;;;12.43;9.30;;;;;;;9.80;65.76;99686.44;10291707;28;96753;-85
2022/12/04 12:05:46;;;;;;;12.23;8.93;;;;;;;10.08;65.89;99680.75;10292430;28;96860;-85
2022/12/04 12:11:03;;;;;;;11.60;8.80;;;;;;;10.23;65.43;99675.63;10288910;28;96762;-86
2022/12/04 12:16:20;;;;;;;11.30;8.90;;;;;;;10.20;65.66;99674.94;10290282;28;96835;-85
2022/12/04 12:21:43;;;;;;;11.75;9.05;;;;;;;10.31;64.71;99670.03;10291367;28;96746;-85
2022/12/04 12:27:03;;;;;;;11.07;8.10;;;;;;;10.82;64.12;99664.84;10291589;28;96626;-85
2022/12/04 12:32:31;;;;;;;11.68;8.10;;;;;;;11.06;62.77;99671.50;10291788;28;97104;-85
2022/12/04 12:37:44;;;;;;;10.23;8.10;;;;;;;11.17;63.16;99655.19;10290268;28;96586;-85
2022/12/04 12:42:56;;;;;;;11.13;8.10;;;;;;;11.04;63.26;99660.19;10291393;28;96735;-85
2022/12/04 12:48:10;;;;;;;9.85;8.23;;;;;;;11.10;63.03;99659.06;10291004;28;97393;-85
2022/12/04 12:53:21;;;;;;;9.63;8.00;;;;;;;11.48;63.05;99633.34;10291312;28;97534;-85
2022/12/04 12:58:33;;;;;;;;;;;;;;;11.24;63.21;99623.19;10292350;28;96696;-85
2022/12/04 13:03:45;;;;;;;12.00;9.23;;;;;;;11.19;63.10;99637.53;10296947;28;96703;-85
2022/12/04 13:09:06;;;;;;;11.68;8.55;;;;;;;11.18;63.67;99639.31;10326307;28;96774;-85
2022/12/04 13:14:17;;;;;;;10.27;7.95;;;;;;;11.67;62.78;99627.03;10329659;28;96628;-85
2022/12/04 13:19:25;;;;;;;10.02;8.05;;;;;;;12.40;60.83;99623.81;10296258;28;97212;-85
2022/12/04 13:25:00;;;;;;;10.45;7.78;;;;;;;11.97;61.33;99622.72;10296183;28;97899;-85
2022/12/04 13:30:14;;;;;;;10.93;8.13;;;;;;;11.76;62.55;99607.22;10295857;28;96880;-85
2022/12/04 13:35:26;;;;;;;12.13;9.70;;;;;;;11.54;62.20;99618.09;10296212;28;96787;-86
2022/12/04 13:40:41;;;;;;;16.88;10.70;;;;;;;11.63;62.12;99617.56;10295638;28;97277;-85
2022/12/04 13:45:51;;;;;;;24.38;15.25;;;;;;;11.95;61.88;99600.88;10296675;28;96684;-85
2022/12/04 13:51:06;;;;;;;9.45;7.20;;;;;;;11.88;62.04;99606.56;10296223;28;96734;-85
2022/12/04 13:56:30;;;;;;;10.23;7.97;;;;;;;11.89;62.21;99601.19;10295657;28;96683;-85
2022/12/04 14:01:39;;;;;;;10.27;7.85;;;;;;;11.74;62.24;99604.69;10293644;28;97146;-85
2022/12/04 14:06:51;;;;;;;11.70;8.02;;;;;;;11.79;62.33;99607.91;10308971;28;97604;-85
2022/12/04 14:12:02;;;;;;;21.42;14.15;;;;;;;11.63;63.04;99606.19;10336381;28;96551;-85
2022/12/04 14:17:21;;;;;;;14.98;10.85;;;;;;;11.53;63.34;99602.38;10335581;28;97122;-84
2022/12/04 14:22:29;;;;;;;56.97;32.03;;;;;;;11.37;63.45;99600.53;10325373;28;96989;-85
2022/12/04 14:27:44;;;;;;;15.77;10.75;;;;;;;11.70;62.93;99591.75;10294498;28;96514;-85
2022/12/04 14:32:50;;;;;;;13.52;8.85;;;;;;;12.03;62.63;99596.00;10293938;28;96700;-85
2022/12/04 14:37:58;;;;;;;10.40;7.90;;;;;;;11.87;63.67;99597.81;10294756;28;96659;-84
2022/12/04 14:43:14;;;;;;;11.00;7.72;;;;;;;11.69;63.88;99595.31;10294462;28;97012;-84
2022/12/04 14:48:31;;;;;;;10.40;8.27;;;;;;;11.66;63.54;99601.63;10293883;28;96739;-84
2022/12/04 14:53:45;;;;;;;10.85;7.63;;;;;;;11.72;63.91;99611.81;10292659;28;96669;-84
2022/12/04 14:58:56;;;;;;;12.10;7.95;;;;;;;11.45;64.00;99607.19;10293817;28;96639;-84
2022/12/04 15:04:14;;;;;;;10.32;7.75;;;;;;;11.35;64.14;99625.28;10293321;28;97064;-84
2022/12/04 15:14:51;;;;;;;11.20;8.38;;;;;;;11.30;64.49;99627.28;10313594;28;96722;-84
2022/12/04 15:20:09;;;;;;;10.93;7.83;;;;;;;11.42;65.32;99633.69;10333576;28;96642;-85
2022/12/04 15:25:22;;;;;;;12.68;8.38;;;;;;;11.42;65.05;99628.44;10333285;28;96672;-85
2022/12/04 15:30:32;;;;;;;11.35;8.45;;;;;;;11.54;64.44;99633.91;10333335;28;96687;-85
2022/12/04 15:35:42;;;;;;;11.45;8.68;;;;;;;11.99;63.81;99636.69;10333960;28;96658;-85
2022/12/04 15:40:54;;;;;;;12.80;8.77;;;;;;;12.44;62.39;99633.25;10333412;28;96939;-85
2022/12/04 15:46:12;;;;;;;10.98;8.43;;;;;;;12.63;61.30;99649.75;10331717;28;97456;-85
2022/12/04 15:51:20;;;;;;;10.05;8.00;;;;;;;12.83;60.78;99633.63;10292316;28;96499;-85
2022/12/04 15:56:27;;;;;;;11.13;8.57;;;;;;;13.08;60.37;99641.81;10291930;28;97318;-85
2022/12/04 16:01:40;;;;;;;12.10;8.80;;;;;;;12.39;61.48;99651.97;10291348;28;96658;-85
2022/12/04 16:06:50;;;;;;;11.63;8.38;;;;;;;11.96;62.95;99651.81;10313399;28;96681;-85
2022/12/04 16:12:02;;;;;;;12.88;9.38;;;;;;;11.77;64.01;99659.03;10332295;28;96788;-85
2022/12/04 16:17:11;;;;;;;12.10;9.00;;;;;;;11.50;64.89;99668.38;10332227;28;96648;-84
2022/12/04 16:22:22;;;;;;;14.38;9.70;;;;;;;11.30;65.87;99665.00;10332539;28;97271;-85
2022/12/04 16:27:29;;;;;;;14.38;10.30;;;;;;;11.12;66.52;99673.00;10332364;28;96930;-84
2022/12/04 16:32:36;;;;;;;10.73;8.93;;;;;;;10.92;67.05;99671.34;10331619;28;96608;-84
2022/12/04 16:37:41;;;;;;;14.15;10.25;;;;;;;10.82;67.70;99679.75;10337162;28;96790;-83
2022/12/04 16:42:47;;;;;;;14.45;9.85;;;;;;;10.73;68.03;99680.25;10338990;28;96745;-84
2022/12/04 16:47:52;;;;;;;;;;;;;;;10.56;68.76;99693.38;10339029;28;96731;-84
2022/12/04 16:52:56;;;;;;;15.10;11.17;;;;;;;10.56;68.62;99694.22;10338862;28;96648;-84
2022/12/04 16:57:59;;;;;;;15.35;11.27;;;;;;;10.49;69.08;99700.69;10337699;28;96709;-84
2022/12/04 17:03:06;;;;;;;13.68;9.70;;;;;;;10.43;70.09;99724.66;10338192;28;96585;-84
2022/12/04 17:08:10;;;;;;;14.40;10.35;;;;;;;10.39;69.82;99727.50;10297228;28;96810;-84
2022/12/04 17:13:15;;;;;;;15.68;10.48;;;;;;;10.31;69.95;99734.91;10298464;28;96932;-84
2022/12/04 17:18:23;;;;;;;16.38;10.77;;;;;;;10.25;70.44;99738.66;10325080;28;96729;-84
2022/12/04 17:23:27;;;;;;;14.40;9.82;;;;;;;10.19;70.33;99726.66;10337466;28;96782;-84
2022/12/04 17:28:31;;;;;;;15.32;10.07;;;;;;;10.15;70.98;99740.88;10333264;28;96657;-84
2022/12/04 17:33:39;;;;;;;14.63;9.55;;;;;;;10.04;70.91;99730.00;10296210;28;96684;-85
2022/12/04 17:38:43;;;;;;;19.17;14.73;;;;;;;10.00;71.07;99749.44;10296107;28;96706;-84
2022/12/04 17:43:48;;;;;;;15.90;12.80;;;;;;;9.98;71.09;99753.09;10295213;28;96625;-85
2022/12/04 17:48:56;;;;;;;15.40;10.13;;;;;;;9.93;71.30;99761.19;10296047;28;97419;-84
2022/12/04 17:54:07;;;;;;;;;;;;;;;9.85;72.11;99762.41;10296371;28;96572;-84
2022/12/04 17:59:13;;;;;;;18.27;10.27;;;;;;;9.84;71.89;99769.47;10294643;28;96751;-84
2022/12/04 18:04:19;;;;;;;;;;;;;;;9.74;72.42;99775.19;10296965;28;96683;-84
2022/12/04 18:09:24;;;;;;;13.77;9.55;;;;;;;9.74;71.95;99775.19;10295095;28;96634;-84
2022/12/04 18:14:29;;;;;;;66.35;40.15;;;;;;;9.77;72.51;99790.81;10294955;28;96845;-84
2022/12/04 18:19:39;;;;;;;11.90;9.40;;;;;;;9.70;72.83;99798.13;10295949;28;96639;-85
2022/12/04 18:24:47;;;;;;;16.60;10.95;;;;;;;9.71;72.63;99807.69;10335695;28;96691;-84
2022/12/04 18:29:51;;;;;;;15.32;9.60;;;;;;;9.65;72.80;99809.75;10335284;28;96622;-84
2022/12/04 18:34:57;;;;;;;15.05;11.10;;;;;;;9.67;72.42;99815.78;10335585;28;96549;-84
2022/12/04 18:40:02;;;;;;;16.05;10.70;;;;;;;9.62;73.10;99817.75;10334592;28;96999;-84
2022/12/04 18:45:10;;;;;;;15.43;10.98;;;;;;;9.58;72.86;99827.53;10334675;28;96702;-84
2022/12/04 18:50:16;;;;;;;14.97;10.60;;;;;;;9.53;72.70;99823.41;10334859;28;96740;-84
2022/12/04 18:55:20;;;;;;;14.57;10.75;;;;;;;9.50;73.52;99828.78;10333857;28;96755;-84
2022/12/04 19:00:24;;;;;;;14.05;10.82;;;;;;;9.46;73.04;99830.69;10333945;28;96848;-84
2022/12/04 19:05:30;;;;;;;14.40;9.93;;;;;;;9.43;73.68;99825.56;10333895;28;96859;-84
2022/12/04 19:10:33;;;;;;;;;;;;;;;9.34;74.27;99835.59;10330052;28;96680;-83
2022/12/04 19:15:43;;;;;;;16.60;10.95;;;;;;;9.32;74.35;99824.28;10292877;28;97215;-84
2022/12/04 19:20:50;;;;;;;16.73;11.00;;;;;;;9.31;73.77;99836.53;10293021;28;96654;-84
2022/12/04 19:25:58;;;;;;;13.05;10.13;;;;;;;9.32;74.09;99847.91;10292733;28;96752;-83
2022/12/04 19:31:02;;;;;;;18.88;10.88;;;;;;;9.29;74.39;99842.78;10292726;28;96791;-84
2022/12/04 19:36:12;;;;;;;15.57;11.25;;;;;;;9.26;74.11;99846.38;10292808;28;96602;-84
2022/12/04 19:41:21;;;;;;;16.88;11.18;;;;;;;9.25;74.23;99859.59;10292583;28;96651;-84
2022/12/04 19:46:28;;;;;;;15.55;10.52;;;;;;;9.22;74.27;99860.53;10293580;28;97114;-84
2022/12/04 19:51:38;;;;;;;15.45;10.43;;;;;;;9.21;74.26;99852.72;10291667;28;96653;-84
2022/12/04 19:56:44;;;;;;;14.30;10.20;;;;;;;9.20;73.81;99856.25;10291650;28;96670;-84
2022/12/04 20:01:50;;;;;;;14.88;11.05;;;;;;;9.22;74.16;99857.06;10295317;28;97358;-84
2022/12/04 20:06:55;;;;;;;12.98;10.15;;;;;;;9.25;74.31;99870.06;10333710;28;96759;-84
2022/12/04 20:11:59;;;;;;;15.20;10.07;;;;;;;9.23;74.07;99861.38;10346446;28;96670;-84
2022/12/04 20:17:04;;;;;;;15.93;11.02;;;;;;;9.23;74.11;99862.25;10345609;28;96759;-84
2022/12/04 20:22:12;;;;;;;15.88;10.82;;;;;;;9.24;73.89;99881.50;10313086;28;96598;-84
2022/12/04 20:27:16;;;;;;;14.02;9.63;;;;;;;9.27;74.00;99870.88;10304737;28;96628;-84
2022/12/04 20:32:20;;;;;;;15.45;10.50;;;;;;;9.31;74.06;99875.09;10304496;28;97109;-84
2022/12/04 20:37:27;;;;;;;;;;;;;;;9.25;74.05;99875.34;10306121;28;96707;-84
2022/12/04 20:42:32;;;;;;;16.70;10.77;;;;;;;9.34;73.19;99877.59;10304698;28;96737;-84
2022/12/04 20:47:38;;;;;;;15.13;11.23;;;;;;;9.36;73.62;99889.75;10304434;28;96616;-84
2022/12/04 20:52:44;;;;;;;15.20;10.37;;;;;;;9.36;73.65;99876.63;10303655;28;97031;-84
2022/12/04 20:57:49;;;;;;;15.55;10.35;;;;;;;9.44;73.65;99876.28;10303514;28;96686;-84
2022/12/04 21:02:52;;;;;;;16.05;10.93;;;;;;;9.44;73.59;99874.53;10317723;28;96665;-84
2022/12/04 21:07:59;;;;;;;18.20;11.27;;;;;;;9.51;73.07;99883.00;10344751;28;96760;-84
2022/12/04 21:18:26;;;;;;;17.08;11.30;;;;;;;9.53;73.20;99881.19;10301720;28;96620;-84
2022/12/04 21:23:34;;;;;;;15.88;11.35;;;;;;;9.52;73.63;99882.09;10296681;28;97146;-84
2022/12/04 21:28:39;;;;;;;14.88;9.68;;;;;;;9.56;73.65;99894.19;10297477;28;97311;-84
2022/12/04 21:33:43;;;;;;;15.70;10.30;;;;;;;9.50;73.46;99890.03;10296825;28;96731;-85
2022/12/04 21:38:50;;;;;;;14.77;10.52;;;;;;;9.57;73.61;99902.00;10296331;28;96738;-84
2022/12/04 21:43:54;;;;;;;15.70;10.68;;;;;;;9.55;73.87;99884.59;10295853;28;97162;-84
2022/12/04 21:48:59;;;;;;;16.07;10.37;;;;;;;9.55;74.02;99900.34;10295974;28;96577;-84
2022/12/04 21:54:06;;;;;;;15.45;10.48;;;;;;;9.54;73.88;99888.13;10295379;28;96699;-84
2022/12/04 21:59:16;;;;;;;16.13;10.02;;;;;;;9.56;73.45;99878.41;10295121;28;96609;-84
2022/12/04 22:04:22;;;;;;;15.15;10.35;;;;;;;9.54;73.67;99875.84;10295460;28;96831;-83
2022/12/04 22:09:29;;;;;;;16.92;10.13;;;;;;;9.47;73.88;99869.16;10294962;28;96658;-84
2022/12/04 22:14:34;;;;;;;13.77;10.13;;;;;;;9.50;73.90;99862.94;10295264;28;96609;-84
2022/12/04 22:19:38;;;;;;;14.85;10.57;;;;;;;9.46;74.05;99877.97;10316039;28;96882;-84
2022/12/04 22:24:43;;;;;;;16.67;10.23;;;;;;;9.52;73.80;99866.34;10335832;28;96600;-84
2022/12/04 22:29:49;;;;;;;14.63;10.77;;;;;;;9.44;74.10;99869.28;10335507;28;96704;-84
2022/12/04 22:34:54;;;;;;;15.25;10.45;;;;;;;9.49;73.66;99887.47;10333146;28;96611;-84
2022/12/04 22:40:03;;;;;;;17.20;10.57;;;;;;;9.49;73.54;99890.09;10334762;28;96555;-84
2022/12/04 22:45:08;;;;;;;13.65;10.05;;;;;;;9.47;73.79;99891.91;10334936;28;96630;-84
2022/12/04 22:50:12;;;;;;;;;;;;;;;9.39;74.42;99891.38;10336250;28;96630;-84
2022/12/04 22:55:19;;;;;;;15.15;10.13;;;;;;;9.39;73.96;99899.25;10334503;28;97435;-84
2022/12/04 23:00:24;;;;;;;16.95;10.50;;;;;;;9.41;74.05;99889.56;10333795;28;96844;-84
2022/12/04 23:05:28;;;;;;;15.40;10.70;;;;;;;9.36;74.13;99894.16;10334395;28;97003;-84
2022/12/04 23:10:36;;;;;;;14.93;10.07;;;;;;;9.34;74.56;99898.59;10315744;28;96558;-84
2022/12/04 23:15:40;;;;;;;17.13;10.95;;;;;;;9.33;74.71;99897.72;10291981;28;96810;-84
2022/12/04 23:20:45;;;;;;;17.38;11.15;;;;;;;9.41;74.61;99887.78;10332890;28;96747;-84
2022/12/04 23:25:50;;;;;;;16.42;10.85;;;;;;;9.40;74.29;99880.81;10327600;28;96772;-84
2022/12/04 23:30:55;;;;;;;15.60;10.50;;;;;;;9.42;74.47;99872.88;10292419;28;96725;-84
2022/12/04 23:36:00;;;;;;;14.77;10.32;;;;;;;9.38;74.63;99866.88;10292680;28;96716;-84
2022/12/04 23:41:10;;;;;;;17.20;11.18;;;;;;;9.37;74.85;99867.81;10292386;28;96611;-84
2022/12/04 23:46:19;;;;;;;15.15;9.80;;;;;;;9.34;74.77;99870.56;10292650;28;96654;-84
2022/12/04 23:51:24;;;;;;;15.35;9.77;;;;;;;9.36;75.26;99867.88;10291839;28;96747;-84
2022/12/04 23:56:31;;;;;;;15.70;10.18;;;;;;;9.36;74.96;99874.00;10291810;28;96665;-84
